This is the latest recevied telemetry packets stored in our database for station/object OE3AOG-12. If no packets are shown the sender has not sent any telemetry packets the latest 1 day(s).
Telemetry packets is used to share measurements like repeteater parameters, battery voltage, radiation readings (or any other measurements).
| Time | Press* | Temp.in* | Hum* | QNH* | Temp.out* |
|---|---|---|---|---|---|
| 1836274048 | 993.5 hPa | 24.8 C deg | 42.5 % | 1024.7 hPa | 22 C deg |
| 1778019225 | 975 hPa | 25.5 C deg | 27.2 % | 1005.6 hPa | 16.6 C deg |
| 1778017414 | 974.8 hPa | 26.2 C deg | 26.9 % | 1005.3 hPa | 16.9 C deg |
| 1778015606 | 974.4 hPa | 26.8 C deg | 26.7 % | 1004.8 hPa | 18.2 C deg |
| 1778013829 | 974 hPa | 27 C deg | 26.7 % | 1004.4 hPa | 18.5 C deg |
| 1778011989 | 973.8 hPa | 27.3 C deg | 26.7 % | 1004.2 hPa | 18.8 C deg |
| 1778010171 | 973.8 hPa | 27.6 C deg | 26.6 % | 1004.1 hPa | 19.3 C deg |
| 1778008343 | 973.6 hPa | 28.2 C deg | 26.4 % | 1003.9 hPa | 19.8 C deg |
| 1778006529 | 973.6 hPa | 28.7 C deg | 26.2 % | 1003.7 hPa | 20.3 C deg |
| 1778004721 | 973.5 hPa | 29.2 C deg | 26.2 % | 1003.6 hPa | 20.9 C deg |
| 1778002919 | 973.5 hPa | 29.8 C deg | 26.1 % | 1003.6 hPa | 21.8 C deg |
| 1778001085 | 973.7 hPa | 30.5 C deg | 25.9 % | 1003.7 hPa | 22.6 C deg |
| 1777999318 | 973.8 hPa | 31 C deg | 25.8 % | 1003.7 hPa | 23.8 C deg |
| 1777997508 | 974.1 hPa | 31.5 C deg | 25.7 % | 1004 hPa | 24.9 C deg |
| 1777995646 | 974.2 hPa | 32 C deg | 25.6 % | 1004.1 hPa | 25.4 C deg |
| 1777993847 | 974.5 hPa | 32.5 C deg | 25.5 % | 1004.4 hPa | 26.1 C deg |
| 1777992023 | 974.7 hPa | 32.8 C deg | 25.7 % | 1004.5 hPa | 27.4 C deg |
| 1777990191 | 974.5 hPa | 32.9 C deg | 25.8 % | 1004.3 hPa | 29.3 C deg |
| 1777988384 | 974.7 hPa | 32.8 C deg | 25.8 % | 1004.5 hPa | 30.9 C deg |
| 1777986586 | 974.8 hPa | 32.5 C deg | 26 % | 1004.6 hPa | 30.9 C deg |
| 1777984758 | 975 hPa | 32 C deg | 26.3 % | 1004.9 hPa | 30.9 C deg |
| 1777982936 | 975.2 hPa | 31.4 C deg | 26.8 % | 1005.1 hPa | 31.8 C deg |
| 1777981128 | 975.4 hPa | 30.6 C deg | 27.3 % | 1005.5 hPa | 31.8 C deg |
| 1777979346 | 975.8 hPa | 29.9 C deg | 27.4 % | 1005.9 hPa | 31.7 C deg |
| 1777977478 | 976.1 hPa | 28.5 C deg | 27.9 % | 1006.4 hPa | 30.2 C deg |
*Used Equation Coefficients:
Press: 0, 1, 0
Temp.in: 0, 1, 0
Hum: 0, 1, 0
QNH: 0, 1, 0
Temp.out: 0, 1, 0
- The parameter names for the analog channels will be Value1, Value2, Value3 (up to Value5) if station has not sent a PARAM-packet that specifies the parameter names for each analog channel.
- Each analog value is a decimal number between 000 and 255 (according to APRS specifications). The receiver use the telemetry equation coefficientsto to restore the original sensor values. If no EQNS-packet with equation coefficients is sent we will show the values as is (this corresponds to the equation coefficients a=0, b=1 and c=0).
The sent equation coefficients is used in the equation: a * value2 + b * value + c. - The units for the analog values will not be shown if station has not sent a UNIT-packet specifying what unit's to use.
- The parameter names for the digital bits will be Bit1, Bit2, Bit3 (up to Bit8) if station has not sent a PARAM-packet that specifies the parameter names for each digital bit.
- All bit labels will be named "On" if station has not sent a UNIT-packet that specifies the label of each bit.
- A bit is considered to be On when the bit is 1 if station has not sent a BITS-packet that specifies another "Bit sense" (a BITS-packet specify the state of the bits that match the BIT labels)